Time;durP1;ratioP1;P1;durP2;ratioP2;P2;SDS_P1;SDS_P2;PMS_P1;PMS_P2;Temp;Humidity;BMP_temperature;BMP_pressure;BME280_temperature;BME280_humidity;BME280_pressure;Samples;Min_cycle;Max_cycle;Signal;HPM_P1;HPM_P2
2022/08/09 00:00:24;;;;;;;2.63;2.03;;;18.40;99.90;;;;;;20980225;28;20062;-83
2022/08/09 00:10:25;;;;;;;4.80;2.27;;;18.50;99.90;;;;;;20963421;28;20063;-83
2022/08/09 00:20:26;;;;;;;4.27;2.13;;;18.60;99.90;;;;;;20996540;28;20037;-83
2022/08/09 00:30:27;;;;;;;3.00;1.93;;;18.70;99.90;;;;;;20978259;28;20044;-83
2022/08/09 00:40:28;;;;;;;2.50;1.90;;;18.50;99.90;;;;;;20977285;28;20036;-83
2022/08/09 00:50:29;;;;;;;3.27;1.87;;;18.40;99.90;;;;;;20959707;28;20113;-83
2022/08/09 01:00:30;;;;;;;5.77;2.33;;;18.40;99.90;;;;;;20993345;28;20032;-83
2022/08/09 01:10:49;;;;;;;2.93;2.23;;;18.40;99.90;;;;;;20974739;28;20102;-83
2022/08/09 01:21:15;;;;;;;3.25;2.28;;;18.40;99.90;;;;;;20972838;28;20048;-83
2022/08/09 01:31:20;;;;;;;4.90;2.33;;;18.30;99.90;;;;;;20973277;28;20041;-83
2022/08/09 01:41:30;;;;;;;4.22;2.17;;;18.20;99.90;;;;;;20989774;28;20044;-84
2022/08/09 01:51:33;;;;;;;3.67;2.30;;;18.10;99.90;;;;;;20988938;28;20041;-83
2022/08/09 02:01:35;;;;;;;3.00;2.17;;;18.00;99.90;;;;;;20988818;28;20421;-83
2022/08/09 02:11:37;;;;;;;3.10;2.30;;;18.00;99.90;;;;;;20998087;22;20502;-78
2022/08/09 02:21:43;;;;;;;7.27;2.63;;;18.00;99.90;;;;;;21001627;28;20059;-77
2022/08/09 02:31:46;;;;;;;3.47;2.65;;;17.60;99.90;;;;;;21000885;28;20388;-77
2022/08/09 02:41:57;;;;;;;4.25;2.50;;;17.60;99.90;;;;;;21000797;28;20051;-78
2022/08/09 02:51:59;;;;;;;3.60;2.60;;;17.50;99.90;;;;;;21002230;28;20037;-78
2022/08/09 03:02:01;;;;;;;;;;;17.10;99.90;;;;;;21015734;28;20091;-78
2022/08/09 03:12:03;;;;;;;4.20;2.80;;;16.90;99.90;;;;;;21004065;28;19912;-78
2022/08/09 03:22:07;;;;;;;6.95;2.80;;;16.40;99.90;;;;;;21001460;28;20112;-77
2022/08/09 03:32:09;;;;;;;2.88;2.58;;;16.60;99.90;;;;;;20999828;28;20048;-77
2022/08/09 03:42:09;;;;;;;8.70;2.85;;;16.20;99.90;;;;;;21009824;28;20036;-78
2022/08/09 03:52:12;;;;;;;5.43;3.17;;;16.10;99.90;;;;;;21014842;28;20059;-77
2022/08/09 04:02:13;;;;;;;4.70;2.92;;;16.00;99.90;;;;;;21014131;28;20051;-78
2022/08/09 04:12:14;;;;;;;7.03;3.70;;;15.90;99.90;;;;;;21011280;28;20127;-78
2022/08/09 04:22:15;;;;;;;4.18;3.38;;;15.60;99.90;;;;;;21010266;28;20387;-78
2022/08/09 04:32:16;;;;;;;5.03;3.80;;;15.50;99.90;;;;;;21008072;28;20041;-78
2022/08/09 04:42:17;;;;;;;6.63;3.57;;;15.40;99.90;;;;;;21009113;28;20036;-78
2022/08/09 04:52:20;;;;;;;6.23;3.43;;;15.40;99.90;;;;;;21010494;28;20066;-78
2022/08/09 05:02:23;;;;;;;6.45;2.80;;;15.50;99.90;;;;;;21007491;28;20037;-77
2022/08/09 05:12:24;;;;;;;6.18;3.00;;;15.50;99.90;;;;;;21008210;28;20037;-77
2022/08/09 05:22:24;;;;;;;6.53;4.17;;;15.70;99.90;;;;;;21008925;28;20578;-77
2022/08/09 05:32:25;;;;;;;6.57;3.87;;;15.90;99.90;;;;;;21005411;28;20566;-78
2022/08/09 05:42:26;;;;;;;5.90;3.83;;;16.00;99.90;;;;;;20965736;28;20037;-78
2022/08/09 05:52:27;;;;;;;3.73;3.20;;;16.40;99.90;;;;;;20837278;28;20586;-78
2022/08/09 06:02:28;;;;;;;3.93;3.20;;;16.80;99.90;;;;;;20839278;28;20060;-77
2022/08/09 06:12:29;;;;;;;3.93;3.37;;;17.30;99.90;;;;;;20836929;28;20033;-77
2022/08/09 06:22:30;;;;;;;8.83;4.37;;;18.10;99.90;;;;;;20830135;28;20048;-77
2022/08/09 06:32:31;;;;;;;4.47;3.07;;;18.60;99.90;;;;;;20827273;28;20039;-77
2022/08/09 06:42:32;;;;;;;5.73;2.30;;;18.90;99.90;;;;;;20867774;28;20106;-77
2022/08/09 06:52:33;;;;;;;5.60;2.23;;;19.80;99.90;;;;;;20885325;28;20033;-78
2022/08/09 07:02:34;;;;;;;3.17;2.10;;;20.70;99.90;;;;;;20836492;28;20095;-77
2022/08/09 07:12:34;;;;;;;3.23;2.27;;;21.50;99.90;;;;;;20839510;28;20140;-78
2022/08/09 07:22:35;;;;;;;1.90;1.63;;;22.10;99.90;;;;;;20854430;28;20087;-78
2022/08/09 07:32:36;;;;;;;2.90;1.97;;;23.10;99.90;;;;;;20857076;28;20041;-78
2022/08/09 07:42:58;;;;;;;4.30;1.83;;;23.50;99.90;;;;;;20857581;28;20041;-77
2022/08/09 07:52:59;;;;;;;2.03;1.48;;;24.50;99.90;;;;;;20847318;28;20136;-77
2022/08/09 08:03:00;;;;;;;;;;;25.20;99.90;;;;;;20836700;28;20111;-77
2022/08/09 08:13:01;;;;;;;2.08;1.27;;;25.60;99.90;;;;;;20931197;22;19967;-78
2022/08/09 08:23:04;;;;;;;5.05;1.30;;;26.20;99.90;;;;;;21061399;22;20579;-77
2022/08/09 08:33:05;;;;;;;4.22;2.13;;;26.60;99.90;;;;;;21090908;28;20044;-78
2022/08/09 08:43:06;;;;;;;1.67;1.20;;;27.00;99.90;;;;;;21076889;28;20066;-78
2022/08/09 08:53:07;;;;;;;1.95;1.30;;;27.00;99.90;;;;;;21101444;28;20047;-78
2022/08/09 09:03:10;;;;;;;1.40;1.00;;;27.60;99.90;;;;;;21100007;28;20409;-78
2022/08/09 09:13:13;;;;;;;5.40;1.02;;;27.70;99.90;;;;;;21100477;28;20039;-78
2022/08/09 09:23:13;;;;;;;4.15;1.20;;;28.40;99.90;;;;;;21094534;28;20044;-79
2022/08/09 09:33:14;;;;;;;3.10;1.05;;;28.60;98.60;;;;;;21090435;28;20557;-78
2022/08/09 09:43:19;;;;;;;2.80;1.08;;;28.80;98.00;;;;;;21083101;28;20493;-77
2022/08/09 09:53:25;;;;;;;2.30;0.90;;;29.20;97.40;;;;;;21077697;28;20051;-78
2022/08/09 10:03:43;;;;;;;1.45;0.93;;;29.30;96.30;;;;;;21083072;28;20040;-78
2022/08/09 10:13:44;;;;;;;3.17;1.10;;;29.90;94.80;;;;;;21074574;28;20032;-77
2022/08/09 10:23:47;;;;;;;1.33;0.93;;;30.10;94.00;;;;;;21112012;28;20050;-77
2022/08/09 10:33:48;;;;;;;1.90;1.00;;;29.80;93.50;;;;;;21105219;28;20043;-78
2022/08/09 10:43:50;;;;;;;4.50;0.90;;;30.30;93.70;;;;;;21056600;28;20055;-77
2022/08/09 10:54:09;;;;;;;6.20;0.90;;;30.70;93.90;;;;;;21075146;28;20416;-78
2022/08/09 11:04:17;;;;;;;3.00;1.00;;;31.10;93.70;;;;;;21052383;28;20094;-78
2022/08/09 11:14:40;;;;;;;1.67;0.90;;;31.10;92.10;;;;;;21093438;28;20044;-79
2022/08/09 11:24:57;;;;;;;4.07;0.90;;;31.50;91.50;;;;;;21101521;28;20039;-78
2022/08/09 11:35:00;;;;;;;4.70;1.00;;;31.70;90.80;;;;;;21021233;28;20043;-77
2022/08/09 11:45:00;;;;;;;1.90;0.80;;;31.80;90.90;;;;;;21004234;28;20041;-76
2022/08/09 11:55:33;;;;;;;4.03;0.90;;;32.10;90.40;;;;;;21012369;28;20062;-77
2022/08/09 12:05:35;;;;;;;2.72;1.10;;;32.10;88.80;;;;;;21003988;28;20037;-77
2022/08/09 12:15:36;;;;;;;0.95;0.85;;;32.20;89.00;;;;;;21041358;28;20044;-77
2022/08/09 12:25:37;;;;;;;6.18;1.30;;;32.20;87.30;;;;;;21084317;28;20032;-76
2022/08/09 12:35:39;;;;;;;2.33;1.00;;;32.00;88.80;;;;;;21082629;28;20059;-76
2022/08/09 12:45:40;;;;;;;1.40;0.80;;;31.90;86.90;;;;;;21064107;28;20382;-76
2022/08/09 12:55:41;;;;;;;6.45;0.90;;;32.00;86.10;;;;;;21081138;28;20036;-76
2022/08/09 13:05:47;;;;;;;0.82;0.70;;;32.30;87.80;;;;;;21079727;28;20043;-76
2022/08/09 13:15:53;;;;;;;1.65;0.90;;;32.50;85.90;;;;;;21078567;28;20482;-75
2022/08/09 13:25:54;;;;;;;1.92;0.75;;;32.20;86.50;;;;;;21079685;28;20040;-76
2022/08/09 13:35:55;;;;;;;1.80;0.80;;;32.10;86.30;;;;;;21068572;28;20078;-77
2022/08/09 13:45:55;;;;;;;3.25;1.00;;;31.70;86.60;;;;;;21077198;28;20145;-76
2022/08/09 13:55:56;;;;;;;9.40;1.10;;;31.80;85.00;;;;;;21058774;28;20052;-77
2022/08/09 14:05:58;;;;;;;1.65;0.77;;;31.90;84.90;;;;;;21076214;28;20787;-75
2022/08/09 14:15:59;;;;;;;0.90;0.63;;;32.00;85.00;;;;;;21079445;28;20042;-76
2022/08/09 14:59:11;;;;;;;1.58;1.20;;;31.50;84.00;;;;;;13205233;22;20056;-84
2022/08/09 15:09:12;;;;;;;1.67;1.00;;;31.30;83.40;;;;;;21070046;28;20036;-83
2022/08/09 15:19:13;;;;;;;4.53;0.80;;;31.10;83.30;;;;;;21068754;28;20028;-83
2022/08/09 15:29:14;;;;;;;4.68;0.90;;;30.40;84.40;;;;;;21064090;28;20107;-83
2022/08/09 15:39:15;;;;;;;3.60;1.00;;;30.30;84.70;;;;;;21074764;28;20040;-86
2022/08/09 15:49:16;;;;;;;13.07;2.30;;;30.40;85.00;;;;;;21075485;28;20760;-85
2022/08/09 15:59:17;;;;;;;2.42;1.10;;;30.50;84.60;;;;;;21059340;28;20105;-83
2022/08/09 16:09:18;;;;;;;1.05;0.70;;;30.10;85.60;;;;;;21092878;28;20115;-83
2022/08/09 16:19:19;;;;;;;3.13;1.27;;;29.60;86.00;;;;;;21076179;28;20515;-86
2022/08/09 16:29:20;;;;;;;2.97;0.90;;;29.30;86.40;;;;;;21076487;28;20040;-86
2022/08/09 16:39:21;;;;;;;3.05;1.10;;;29.10;86.70;;;;;;21074984;28;20048;-84
2022/08/09 16:49:22;;;;;;;3.92;1.20;;;28.70;87.90;;;;;;21058147;28;20046;-85
2022/08/09 16:59:23;;;;;;;2.00;1.10;;;28.60;88.00;;;;;;21074309;28;20053;-83
2022/08/09 17:09:24;;;;;;;2.13;1.10;;;28.40;87.70;;;;;;21055364;28;20040;-87
2022/08/09 17:19:25;;;;;;;2.38;1.00;;;28.00;89.00;;;;;;21090125;28;20500;-85
2022/08/09 17:29:26;;;;;;;6.45;1.55;;;27.90;89.00;;;;;;21072049;28;20407;-85
2022/08/09 17:39:26;;;;;;;2.45;0.88;;;27.70;90.00;;;;;;21090683;28;20036;-83
2022/08/09 17:49:28;;;;;;;2.72;1.05;;;27.40;90.00;;;;;;21070350;28;20126;-82
2022/08/09 17:59:29;;;;;;;4.20;1.42;;;27.10;89.40;;;;;;21067470;28;20036;-85
2022/08/09 18:09:30;;;;;;;2.72;0.95;;;26.90;90.00;;;;;;21085032;28;20078;-85
2022/08/09 18:19:31;;;;;;;1.65;0.90;;;26.60;90.60;;;;;;21084483;28;20043;-82
2022/08/09 18:29:31;;;;;;;2.10;0.90;;;26.30;91.30;;;;;;21048131;28;20443;-84
2022/08/09 18:39:33;;;;;;;5.65;1.20;;;25.80;92.20;;;;;;21087148;28;20104;-86
2022/08/09 18:49:34;;;;;;;6.00;1.30;;;25.50;93.00;;;;;;21052002;28;20048;-85
2022/08/09 18:59:35;;;;;;;2.70;1.10;;;25.10;93.50;;;;;;21049183;28;20080;-84
2022/08/09 19:09:36;;;;;;;;;;;24.80;93.80;;;;;;21091494;28;20040;-85
2022/08/09 19:19:37;;;;;;;2.43;1.23;;;24.50;94.10;;;;;;21063424;28;19912;-82
2022/08/09 19:29:39;;;;;;;1.83;1.10;;;24.10;94.60;;;;;;21080365;28;20097;-85
2022/08/09 19:39:40;;;;;;;2.45;1.15;;;23.90;95.10;;;;;;21063165;28;20032;-82
2022/08/09 19:49:41;;;;;;;9.18;1.10;;;23.50;95.80;;;;;;21097333;28;20540;-87
2022/08/09 19:59:42;;;;;;;3.73;1.43;;;23.30;96.30;;;;;;21077721;28;20488;-86
2022/08/09 20:09:42;;;;;;;2.00;1.20;;;22.90;97.00;;;;;;21089171;22;20597;-77
2022/08/09 20:19:43;;;;;;;2.03;1.57;;;22.70;97.10;;;;;;21030013;28;20072;-78
2022/08/09 20:29:44;;;;;;;5.40;1.43;;;22.40;97.50;;;;;;21024981;28;20124;-78
2022/08/09 20:39:45;;;;;;;2.47;1.30;;;22.10;97.70;;;;;;21022203;28;20546;-79
2022/08/09 20:49:46;;;;;;;1.70;1.20;;;21.70;98.50;;;;;;21003338;28;20067;-78
2022/08/09 20:59:47;;;;;;;2.43;1.20;;;21.10;99.40;;;;;;21019073;28;20040;-78
2022/08/09 21:09:48;;;;;;;3.27;1.40;;;20.90;99.40;;;;;;21026763;28;20039;-79
2022/08/09 21:19:49;;;;;;;1.67;1.37;;;20.80;99.90;;;;;;21017719;28;20600;-79
2022/08/09 21:29:49;;;;;;;2.23;1.23;;;20.50;99.90;;;;;;21011698;28;20090;-78
2022/08/09 21:39:51;;;;;;;1.98;1.30;;;20.30;99.90;;;;;;20994961;28;20049;-79
2022/08/09 21:49:52;;;;;;;8.30;1.50;;;20.60;99.90;;;;;;21014742;28;20048;-77
2022/08/09 21:59:53;;;;;;;3.53;1.33;;;20.20;99.90;;;;;;20995886;28;20041;-77
2022/08/09 22:09:54;;;;;;;4.83;1.53;;;20.00;99.90;;;;;;21008531;28;20065;-79
2022/08/09 22:19:55;;;;;;;4.10;1.67;;;20.30;99.90;;;;;;20990437;28;20047;-78
2022/08/09 22:29:56;;;;;;;2.67;1.63;;;20.30;99.90;;;;;;21037279;28;20089;-78
2022/08/09 22:39:57;;;;;;;6.80;1.93;;;20.20;99.90;;;;;;21088837;28;20032;-78
2022/08/09 22:49:58;;;;;;;5.43;2.00;;;20.20;99.90;;;;;;21090174;28;20298;-78
2022/08/09 22:59:59;;;;;;;2.87;1.40;;;20.10;99.90;;;;;;21090733;28;20672;-79
2022/08/09 23:10:00;;;;;;;4.33;1.83;;;19.70;99.90;;;;;;21070738;28;20032;-77
2022/08/09 23:20:01;;;;;;;3.37;1.60;;;19.60;99.90;;;;;;21087426;28;20036;-77
2022/08/09 23:30:02;;;;;;;1.67;1.40;;;19.70;99.90;;;;;;21073041;28;20101;-78
2022/08/09 23:40:04;;;;;;;5.78;1.70;;;19.50;99.90;;;;;;21085005;28;20511;-79
2022/08/09 23:50:05;;;;;;;2.05;1.27;;;19.40;99.90;;;;;;21086884;28;20070;-77
